createdAt,value
2022-09-24T00:03:31.010Z,76.66
2022-09-24T00:08:34.249Z,77.06
2022-09-24T00:13:37.030Z,77.17
2022-09-24T00:18:40.603Z,77.25
2022-09-24T00:23:43.728Z,77.33
2022-09-24T00:28:49.251Z,77.45
2022-09-24T00:33:52.524Z,77.60
2022-09-24T00:38:57.294Z,77.73
2022-09-24T00:44:00.352Z,77.59
2022-09-24T00:49:11.021Z,77.77
2022-09-24T00:54:18.602Z,78.01
2022-09-24T00:59:23.935Z,78.04
2022-09-24T01:04:27.996Z,78.04
2022-09-24T01:09:31.255Z,78.53
2022-09-24T01:14:52.415Z,78.31
2022-09-24T01:20:02.936Z,78.67
2022-09-24T01:26:00.222Z,78.63
2022-09-24T01:31:33.967Z,79.18
2022-09-24T01:36:37.308Z,79.25
2022-09-24T01:41:42.359Z,79.10
2022-09-24T01:46:45.252Z,79.13
2022-09-24T01:51:52.319Z,79.14
2022-09-24T01:57:05.415Z,79.47
2022-09-24T02:02:16.166Z,79.35
2022-09-24T02:07:33.483Z,79.26
2022-09-24T02:12:42.382Z,79.38
2022-09-24T02:17:48.479Z,79.55
2022-09-24T02:22:51.824Z,79.55
2022-09-24T02:27:54.581Z,79.77
2022-09-24T02:32:57.618Z,79.96
2022-09-24T02:38:05.460Z,80.01
2022-09-24T02:43:08.848Z,80.15
2022-09-24T02:48:11.815Z,80.25
2022-09-24T02:53:14.343Z,80.09
2022-09-24T02:58:16.935Z,80.25
2022-09-24T03:03:19.541Z,80.41
2022-09-24T03:08:24.307Z,80.53
2022-09-24T03:13:27.628Z,80.98
2022-09-24T03:18:30.358Z,80.86
2022-09-24T03:23:32.975Z,80.65
2022-09-24T03:28:35.677Z,80.77
2022-09-24T03:33:43.909Z,80.80
2022-09-24T03:38:48.507Z,80.95
2022-09-24T03:43:51.351Z,81.03
2022-09-24T03:48:53.982Z,81.14
2022-09-24T03:53:56.631Z,81.33
2022-09-24T03:58:59.275Z,81.17
2022-09-24T04:04:02.386Z,81.15
2022-09-24T04:09:05.196Z,81.34
2022-09-24T04:14:07.853Z,81.28
2022-09-24T04:19:10.770Z,81.59
2022-09-24T04:24:13.961Z,81.54
2022-09-24T04:29:16.901Z,81.99
2022-09-24T04:34:20.948Z,81.75
2022-09-24T04:39:26.757Z,81.78
2022-09-24T04:44:30.331Z,82.33
2022-09-24T04:49:33.226Z,82.26
2022-09-24T04:54:35.984Z,82.22
2022-09-24T04:59:38.637Z,82.76
2022-09-24T05:04:41.336Z,82.87
2022-09-24T05:09:55.915Z,82.89
2022-09-24T05:15:01.521Z,83.02
2022-09-24T05:20:08.474Z,83.36
2022-09-24T05:25:12.611Z,83.26
2022-09-24T05:30:15.705Z,83.78
2022-09-24T05:35:24.109Z,84.18
2022-09-24T05:40:45.345Z,84.06
2022-09-24T05:45:51.443Z,84.11
2022-09-24T05:50:57.080Z,84.41
2022-09-24T05:55:59.825Z,83.83
2022-09-24T06:01:02.727Z,83.49
2022-09-24T06:06:06.364Z,83.26
2022-09-24T06:11:09.556Z,83.33
2022-09-24T06:16:14.912Z,83.31
2022-09-24T06:21:20.353Z,83.38
2022-09-24T06:26:23.052Z,83.38
2022-09-24T06:31:25.789Z,83.22
2022-09-24T06:36:29.209Z,82.57
2022-09-24T06:41:31.796Z,82.11
2022-09-24T06:46:34.523Z,81.27
2022-09-24T06:51:37.262Z,81.02
2022-09-24T06:56:40.421Z,80.47
2022-09-24T07:01:43.221Z,79.46
2022-09-24T07:07:09.059Z,79.15
2022-09-24T07:12:11.769Z,78.51
2022-09-24T07:17:14.938Z,78.22
2022-09-24T07:22:18.782Z,78.46
2022-09-24T07:27:21.509Z,78.05
2022-09-24T07:32:29.566Z,77.19
2022-09-24T07:37:34.139Z,76.57
2022-09-24T07:42:37.338Z,76.08
2022-09-24T07:47:40.054Z,75.61
2022-09-24T07:52:42.731Z,74.40
2022-09-24T07:57:50.103Z,73.68
2022-09-24T08:02:53.873Z,72.57
2022-09-24T08:07:57.683Z,71.66
2022-09-24T08:13:03.348Z,70.78
2022-09-24T08:18:07.148Z,69.78
2022-09-24T08:23:12.827Z,68.67
2022-09-24T08:28:20.110Z,68.50
2022-09-24T08:33:23.206Z,68.60
2022-09-24T08:38:26.195Z,68.34
2022-09-24T08:43:43.103Z,68.26
2022-09-24T08:48:51.589Z,67.57
2022-09-24T08:54:09.736Z,67.27
2022-09-24T08:59:28.871Z,66.07
2022-09-24T09:04:39.611Z,65.31
2022-09-24T09:09:56.086Z,64.28
2022-09-24T09:15:12.367Z,64.76
2022-09-24T09:20:27.561Z,63.00
2022-09-24T09:25:36.030Z,63.57
2022-09-24T09:30:44.918Z,62.55
2022-09-24T09:36:25.021Z,59.96
2022-09-24T09:42:15.197Z,58.30
2022-09-24T09:47:37.335Z,56.64
2022-09-24T09:52:40.195Z,55.65
2022-09-24T09:57:42.863Z,54.51
2022-09-24T10:02:50.944Z,53.37
2022-09-24T10:07:53.734Z,53.12
2022-09-24T10:13:12.370Z,52.01
2022-09-24T10:18:15.349Z,51.28
2022-09-24T10:23:21.328Z,51.39
2022-09-24T10:28:42.930Z,50.00
2022-09-24T10:33:47.335Z,48.34
2022-09-24T10:38:50.214Z,46.63
2022-09-24T10:43:54.386Z,45.39
2022-09-24T10:49:02.491Z,45.21
2022-09-24T10:54:48.965Z,44.40
2022-09-24T10:59:55.076Z,45.13
2022-09-24T11:05:21.613Z,45.17
2022-09-24T11:10:30.439Z,43.50
2022-09-24T11:15:42.032Z,42.88
2022-09-24T11:21:03.317Z,41.41
2022-09-24T11:26:15.901Z,41.40
2022-09-24T11:31:54.314Z,40.88
2022-09-24T11:37:21.120Z,39.52
2022-09-24T11:42:29.112Z,39.98
2022-09-24T11:48:25.298Z,40.47
2022-09-24T11:53:52.665Z,40.29
2022-09-24T11:59:19.959Z,39.69
2022-09-24T12:04:40.348Z,38.96
2022-09-24T12:09:59.994Z,39.49
2022-09-24T12:15:21.517Z,39.52
2022-09-24T12:20:32.002Z,39.09
2022-09-24T12:25:40.268Z,38.93
2022-09-24T12:31:12.430Z,39.17
2022-09-24T12:36:22.693Z,40.26
2022-09-24T12:41:36.390Z,40.38
2022-09-24T12:46:48.471Z,40.81
2022-09-24T12:51:56.349Z,41.77
2022-09-24T12:57:25.504Z,42.13
2022-09-24T13:02:45.489Z,42.24
2022-09-24T13:07:59.450Z,43.15
2022-09-24T13:13:04.303Z,43.21
2022-09-24T13:18:10.902Z,43.30
2022-09-24T13:23:20.475Z,43.49
2022-09-24T13:28:37.867Z,43.84
2022-09-24T13:33:44.950Z,44.24
2022-09-24T13:39:12.508Z,44.45
2022-09-24T13:44:27.955Z,44.51
2022-09-24T13:49:32.162Z,44.49
2022-09-24T13:54:39.799Z,44.24
2022-09-24T13:59:42.616Z,44.16
2022-09-24T14:04:47.618Z,43.87
2022-09-24T14:09:51.568Z,43.94
2022-09-24T14:14:58.356Z,43.93
2022-09-24T14:20:01.500Z,44.43
2022-09-24T14:25:09.635Z,44.59
2022-09-24T14:30:21.905Z,44.70
2022-09-24T14:35:32.833Z,45.01
2022-09-24T14:40:44.391Z,45.75
2022-09-24T14:45:49.202Z,44.95
2022-09-24T14:50:51.974Z,45.69
2022-09-24T14:55:54.736Z,45.49
2022-09-24T15:01:03.267Z,46.31
2022-09-24T15:06:27.223Z,46.66
2022-09-24T15:11:37.564Z,46.91
2022-09-24T15:16:40.844Z,46.73
2022-09-24T15:21:43.956Z,47.41
2022-09-24T15:27:02.062Z,47.50
2022-09-24T15:32:12.622Z,47.46
2022-09-24T15:37:20.266Z,47.68
2022-09-24T15:42:24.662Z,48.04
2022-09-24T15:47:27.571Z,48.13
2022-09-24T15:52:32.023Z,48.53
2022-09-24T15:57:34.807Z,48.60
2022-09-24T16:02:37.621Z,48.93
2022-09-24T16:07:40.851Z,49.39
2022-09-24T16:12:43.968Z,49.52
2022-09-24T16:17:49.854Z,49.79
2022-09-24T16:22:52.551Z,50.04
2022-09-24T16:27:57.099Z,50.29
2022-09-24T16:32:59.672Z,50.59
2022-09-24T16:38:02.821Z,51.13
2022-09-24T16:43:11.395Z,51.38
2022-09-24T16:48:14.121Z,51.51
2022-09-24T16:53:16.840Z,52.06
2022-09-24T16:58:20.516Z,52.21
2022-09-24T17:03:23.134Z,52.80
2022-09-24T17:08:45.755Z,53.31
2022-09-24T17:13:48.386Z,53.86
2022-09-24T17:18:54.363Z,54.50
2022-09-24T17:23:56.957Z,55.18
2022-09-24T17:29:00.222Z,55.95
2022-09-24T17:34:12.476Z,56.45
2022-09-24T17:39:15.058Z,57.19
2022-09-24T17:44:18.938Z,57.38
2022-09-24T17:49:21.549Z,57.48
2022-09-24T17:54:26.869Z,58.00
2022-09-24T17:59:29.450Z,58.22
2022-09-24T18:04:35.758Z,58.76
2022-09-24T18:09:38.538Z,59.71
2022-09-24T18:14:41.198Z,60.03
2022-09-24T18:19:43.796Z,60.74
2022-09-24T18:24:47.611Z,61.29
2022-09-24T18:29:50.271Z,61.67
2022-09-24T18:34:53.327Z,61.88
2022-09-24T18:39:55.920Z,62.20
2022-09-24T18:44:58.508Z,62.43
2022-09-24T18:50:01.981Z,62.47
2022-09-24T18:55:04.997Z,63.35
2022-09-24T19:00:29.150Z,64.03
2022-09-24T19:05:33.608Z,64.41
2022-09-24T19:10:36.261Z,64.67
2022-09-24T19:15:40.160Z,64.76
2022-09-24T19:20:45.866Z,64.98
2022-09-24T19:25:48.502Z,65.35
2022-09-24T19:30:53.226Z,65.47
2022-09-24T19:36:04.696Z,65.63
2022-09-24T19:41:10.648Z,65.67
2022-09-24T19:46:17.180Z,66.23
2022-09-24T19:51:27.847Z,66.11
2022-09-24T19:56:31.941Z,65.99
2022-09-24T20:01:34.738Z,66.28
2022-09-24T20:06:38.354Z,66.57
2022-09-24T20:11:41.054Z,66.81
2022-09-24T20:16:44.653Z,67.27
2022-09-24T20:21:47.644Z,67.31
2022-09-24T20:27:08.734Z,67.64
2022-09-24T20:32:15.458Z,67.70
2022-09-24T20:37:18.122Z,68.02
2022-09-24T20:42:20.788Z,68.55
2022-09-24T20:47:23.615Z,68.64
2022-09-24T20:52:26.260Z,68.77
2022-09-24T20:57:29.021Z,68.82
2022-09-24T21:02:32.205Z,69.15
2022-09-24T21:07:35.609Z,69.08
2022-09-24T21:12:39.029Z,69.35
2022-09-24T21:17:51.012Z,69.72
2022-09-24T21:23:06.108Z,69.61
2022-09-24T21:28:09.524Z,70.09
2022-09-24T21:33:12.866Z,70.30
2022-09-24T21:38:18.506Z,70.34
2022-09-24T21:43:23.651Z,70.27
2022-09-24T21:48:26.973Z,70.63
2022-09-24T21:53:29.666Z,71.00
2022-09-24T21:58:32.686Z,71.05
2022-09-24T22:03:35.229Z,71.25
2022-09-24T22:08:38.131Z,71.23
2022-09-24T22:13:41.013Z,71.81
2022-09-24T22:18:43.659Z,72.13
2022-09-24T22:23:46.258Z,72.20
2022-09-24T22:28:49.163Z,72.44
2022-09-24T22:34:10.588Z,72.43
2022-09-24T22:39:13.436Z,72.73
2022-09-24T22:44:16.083Z,72.84
2022-09-24T22:49:19.645Z,73.27
2022-09-24T22:54:24.263Z,73.18
2022-09-24T22:59:26.951Z,73.58
2022-09-24T23:04:30.145Z,73.70
2022-09-24T23:09:32.781Z,73.71
2022-09-24T23:14:35.423Z,73.60
2022-09-24T23:19:50.057Z,73.96
2022-09-24T23:24:53.193Z,74.14
2022-09-24T23:29:56.979Z,74.27
2022-09-24T23:35:00.229Z,74.47
2022-09-24T23:40:03.278Z,74.98
2022-09-24T23:45:06.554Z,74.87
2022-09-24T23:50:09.416Z,75.23
2022-09-24T23:55:12.103Z,75.58
